Time;durP1;ratioP1;P1;durP2;ratioP2;P2;SDS_P1;SDS_P2;PMS_P1;PMS_P2;Temp;Humidity;BMP_temperature;BMP_pressure;BME280_temperature;BME280_humidity;BME280_pressure;Samples;Min_cycle;Max_cycle;Signal;HPM_P1;HPM_P2
2022/04/28 00:00:27;;;;;;;21.43;20.00;;;;;;;9.70;100.00;102962.80;1913338;74;86483;-72
2022/04/28 00:06:12;;;;;;;16.57;15.57;;;;;;;9.75;100.00;102962.97;1940528;71;39529;-72
2022/04/28 00:11:56;;;;;;;16.30;15.30;;;;;;;9.75;100.00;102961.58;1843147;76;86014;-73
2022/04/28 00:17:40;;;;;;;18.50;17.20;;;;;;;9.68;100.00;102952.98;1881357;74;86516;-73
2022/04/28 00:23:25;;;;;;;19.90;18.30;;;;;;;9.49;100.00;102967.36;1943404;73;86367;-73
2022/04/28 00:29:09;;;;;;;20.37;19.17;;;;;;;9.47;100.00;102970.89;1987118;71;39400;-72
2022/04/28 00:34:57;;;;;;;22.30;20.67;;;;;;;9.33;100.00;102978.98;1842991;76;85445;-72
2022/04/28 00:40:41;;;;;;;21.77;20.20;;;;;;;9.73;100.00;102970.66;1884673;74;86079;-74
2022/04/28 00:46:25;;;;;;;20.90;19.53;;;;;;;9.55;100.00;102975.62;1922763;73;86514;-74
2022/04/28 00:52:09;;;;;;;19.30;17.90;;;;;;;9.85;100.00;102967.44;1975062;71;39596;-74
2022/04/28 00:57:54;;;;;;;19.20;18.10;;;;;;;9.84;100.00;102956.58;1845966;76;86038;-73
2022/04/28 01:03:39;;;;;;;20.63;19.33;;;;;;;9.64;100.00;102942.03;1885036;74;85494;-74
2022/04/28 01:09:23;;;;;;;20.80;19.50;;;;;;;9.68;100.00;102954.37;1914324;74;86294;-73
2022/04/28 01:15:08;;;;;;;21.43;20.00;;;;;;;9.62;100.00;102950.59;1982552;71;39757;-73
2022/04/28 01:20:53;;;;;;;22.70;21.07;;;;;;;9.43;100.00;102958.55;1887939;74;86772;-72
2022/04/28 01:26:37;;;;;;;23.80;22.10;;;;;;;9.52;100.00;102964.12;1885960;75;86410;-73
2022/04/28 01:32:22;;;;;;;25.17;23.47;;;;;;;9.46;100.00;102963.09;1906445;72;86230;-73
2022/04/28 01:38:06;;;;;;;25.87;23.97;;;;;;;9.56;100.00;102959.82;1975305;71;39749;-71
2022/04/28 01:43:51;;;;;;;27.50;25.60;;;;;;;9.50;100.00;102967.11;1888227;74;85551;-71
2022/04/28 01:49:35;;;;;;;28.77;26.80;;;;;;;9.53;100.00;102961.14;1797528;78;86060;-72
2022/04/28 01:55:20;;;;;;;29.20;27.30;;;;;;;9.36;100.00;102948.91;1917432;72;86401;-72
2022/04/28 02:01:03;;;;;;;33.13;30.93;;;;;;;9.23;100.00;102955.09;1811959;78;85126;-73
2022/04/28 02:06:48;;;;;;;35.10;32.70;;;;;;;9.00;100.00;102962.06;1805513;77;85953;-74
2022/04/28 02:12:32;;;;;;;41.30;38.60;;;;;;;8.84;100.00;102964.52;1865327;75;85891;-71
2022/04/28 02:18:17;;;;;;;43.37;40.57;;;;;;;8.88;100.00;102963.86;1925330;71;39558;-74
2022/04/28 02:24:01;;;;;;;44.80;42.20;;;;;;;8.96;100.00;102955.80;1836583;76;86564;-74
2022/04/28 02:29:47;;;;;;;48.67;45.30;;;;;;;8.87;100.00;102954.37;1888506;73;86289;-72
2022/04/28 02:35:31;;;;;;;49.23;46.07;;;;;;;8.78;100.00;102963.48;1874697;75;86941;-73
2022/04/28 02:41:19;;;;;;;50.77;47.73;;;;;;;8.47;100.00;102960.67;1979084;71;39783;-73
2022/04/28 02:47:05;;;;;;;52.33;49.33;;;;;;;8.34;100.00;102966.27;1891583;74;86412;-73
2022/04/28 02:52:50;;;;;;;56.70;53.20;;;;;;;8.15;100.00;102959.16;1891702;74;86535;-73
2022/04/28 02:58:35;;;;;;;57.70;53.93;;;;;;;7.88;100.00;102972.73;1873570;75;86627;-71
2022/04/28 03:04:19;;;;;;;59.80;56.40;;;;;;;7.85;100.00;102965.39;1929158;73;86025;-72
2022/04/28 03:16:08;;;;;;;62.40;58.40;;;;;;;7.18;100.00;102963.73;1985935;71;39711;-73
2022/04/28 03:21:52;;;;;;;63.13;59.00;;;;;;;7.21;100.00;102961.40;1847226;75;86339;-72
2022/04/28 03:27:36;;;;;;;62.00;57.80;;;;;;;6.91;100.00;102961.45;1877084;75;86210;-73
2022/04/28 03:33:22;;;;;;;62.47;58.60;;;;;;;6.68;100.00;102956.81;1914936;72;86320;-71
2022/04/28 03:39:07;;;;;;;61.70;57.90;;;;;;;6.59;100.00;102963.05;1944269;71;39623;-73
2022/04/28 03:47:57;;;;;;;60.53;56.67;;;;;;;6.72;100.00;102969.15;1993391;69;39459;-72
2022/04/28 03:53:41;;;;;;;60.60;56.90;;;;;;;6.51;100.00;102978.43;1877054;73;85636;-74
2022/04/28 03:59:24;;;;;;;60.47;56.47;;;;;;;6.47;100.00;102982.66;1918835;73;86380;-75
2022/04/28 04:05:11;;;;;;;60.90;56.90;;;;;;;6.31;100.00;102986.64;1976746;71;39512;-73
2022/04/28 04:10:56;;;;;;;61.73;57.70;;;;;;;6.43;100.00;102989.66;1950917;72;86110;-72
2022/04/28 04:16:40;;;;;;;61.73;57.57;;;;;;;6.22;100.00;103000.28;1871621;75;86333;-71
2022/04/28 04:22:24;;;;;;;60.67;56.77;;;;;;;6.20;100.00;102999.65;1919775;72;86340;-72
2022/04/28 04:28:08;;;;;;;58.80;55.00;;;;;;;6.25;100.00;103005.91;1981415;71;48042;-73
2022/04/28 04:33:59;;;;;;;60.33;56.23;;;;;;;6.23;100.00;103021.83;1947141;72;86196;-73
2022/04/28 04:39:43;;;;;;;58.50;54.27;;;;;;;6.28;100.00;103024.84;1893213;73;86153;-72
2022/04/28 04:45:27;;;;;;;57.10;53.10;;;;;;;6.23;100.00;103019.08;1808035;77;86301;-72
2022/04/28 04:51:11;;;;;;;57.77;53.97;;;;;;;6.25;100.00;103037.12;1924277;71;39450;-74
2022/04/28 04:56:55;;;;;;;59.60;55.10;;;;;;;6.17;100.00;103031.77;1900772;73;86332;-72
2022/04/28 05:02:38;;;;;;;58.10;53.93;;;;;;;6.28;100.00;103036.73;1883528;75;86455;-77
2022/04/28 05:08:24;;;;;;;60.03;55.70;;;;;;;6.50;100.00;103025.59;1939169;73;85979;-73
2022/04/28 05:14:09;;;;;;;58.77;54.57;;;;;;;6.46;100.00;103051.91;1986636;71;39674;-73
2022/04/28 05:19:56;;;;;;;60.93;56.80;;;;;;;6.82;100.00;103055.25;1841264;76;86394;-72
2022/04/28 05:25:39;;;;;;;58.07;53.97;;;;;;;6.73;100.00;103070.30;1879228;75;86173;-72
2022/04/28 05:31:23;;;;;;;60.00;55.63;;;;;;;6.83;100.00;103061.96;1906298;72;85408;-73
2022/04/28 05:37:08;;;;;;;60.93;56.67;;;;;;;6.94;100.00;103059.64;1984817;71;39623;-74
2022/04/28 05:48:55;;;;;;;57.20;52.83;;;;;;;7.19;100.00;103075.98;1846813;76;86544;-74
2022/04/28 05:54:40;;;;;;;56.07;52.07;;;;;;;7.37;100.00;103080.91;1820590;78;86629;-77
2022/04/28 06:00:24;;;;;;;57.60;53.10;;;;;;;7.72;100.00;103085.23;1917745;72;86355;-75
2022/04/28 06:06:08;;;;;;;58.40;54.33;;;;;;;8.43;100.00;103079.34;1978831;71;39536;-73
2022/04/28 06:11:52;;;;;;;56.27;52.40;;;;;;;9.17;100.00;103075.21;1834256;76;85619;-75
2022/04/28 06:17:38;;;;;;;54.60;51.10;;;;;;;9.28;100.00;103073.14;1888983;75;86079;-74
2022/04/28 06:23:23;;;;;;;55.27;51.30;;;;;;;9.54;100.00;103066.86;1907459;73;86032;-74
2022/04/28 06:29:08;;;;;;;55.77;51.97;;;;;;;9.54;100.00;103059.10;1982082;71;39687;-71
2022/04/28 06:34:52;;;;;;;56.93;52.90;;;;;;;9.63;100.00;103064.66;1877472;74;86309;-74
2022/04/28 06:40:36;;;;;;;57.37;53.60;;;;;;;9.64;100.00;103078.00;1876018;74;86608;-73
2022/04/28 06:46:23;;;;;;;54.40;50.80;;;;;;;9.75;100.00;103082.84;1923039;72;86789;-73
2022/04/28 06:52:08;;;;;;;54.07;50.17;;;;;;;9.96;100.00;103084.70;1984277;71;39682;-73
2022/04/28 06:57:51;;;;;;;53.07;49.47;;;;;;;9.91;100.00;103080.36;1898583;74;86305;-73
2022/04/28 07:03:35;;;;;;;52.87;49.53;;;;;;;9.96;100.00;103091.64;1888753;75;86305;-72
2022/04/28 07:09:20;;;;;;;48.27;45.23;;;;;;;10.16;100.00;103076.74;1910839;74;86498;-72
2022/04/28 07:15:05;;;;;;;47.13;44.13;;;;;;;10.21;100.00;103094.97;1795431;78;85295;-71
2022/04/28 07:20:49;;;;;;;49.80;46.77;;;;;;;10.26;100.00;103086.80;1902890;74;86362;-74
2022/04/28 07:26:34;;;;;;;44.77;42.00;;;;;;;10.39;100.00;103081.12;1803721;77;85447;-73
2022/04/28 07:32:18;;;;;;;43.07;40.43;;;;;;;10.52;100.00;103084.30;1859804;76;86717;-71
2022/04/28 07:38:03;;;;;;;42.77;40.07;;;;;;;10.32;100.00;103086.72;1955849;72;86381;-72
2022/04/28 07:43:47;;;;;;;41.77;39.27;;;;;;;10.55;100.00;103086.06;1847515;75;86224;-74
2022/04/28 07:49:31;;;;;;;44.13;41.10;;;;;;;10.48;100.00;103087.51;1873280;75;86352;-77
2022/04/28 07:55:16;;;;;;;42.13;38.97;;;;;;;10.60;100.00;103091.78;1979681;71;39698;-72
2022/04/28 08:00:59;;;;;;;40.93;38.37;;;;;;;10.81;100.00;103087.69;1891464;74;86027;-74
2022/04/28 08:06:44;;;;;;;36.47;34.20;;;;;;;10.83;100.00;103105.83;1873432;75;86302;-72
2022/04/28 08:12:29;;;;;;;38.10;35.63;;;;;;;11.03;100.00;103106.14;1807057;77;86604;-74
2022/04/28 08:18:14;;;;;;;34.00;32.00;;;;;;;11.25;100.00;103109.56;1976628;71;39477;-73
2022/04/28 08:23:50;;;;;;;34.13;32.03;;;;;;;11.12;100.00;103117.26;1794274;77;87928;-73
2022/04/28 08:26:21;;;;;;;33.40;31.30;;;;;;;11.10;100.00;103117.48;1737718;81;937712;-73
2022/04/28 08:32:07;;;;;;;33.60;31.60;;;;;;;11.49;100.00;103110.52;1977458;71;39772;-73
2022/04/28 08:37:54;;;;;;;30.63;28.83;;;;;;;11.35;100.00;103117.36;1902524;74;86259;-73
2022/04/28 08:43:40;;;;;;;30.93;29.03;;;;;;;11.40;100.00;103125.31;1883775;75;86045;-72
2022/04/28 08:49:26;;;;;;;31.03;28.93;;;;;;;11.39;100.00;103131.95;1900005;72;86347;-74
2022/04/28 08:55:13;;;;;;;29.70;27.90;;;;;;;12.16;100.00;103120.40;1974470;70;39659;-73
2022/04/28 09:00:55;;;;;;;29.13;27.13;;;;;;;11.67;100.00;103126.33;1972318;72;86077;-73
2022/04/28 09:06:40;;;;;;;29.40;27.50;;;;;;;11.84;100.00;103119.88;1886222;73;86172;-73
2022/04/28 09:12:25;;;;;;;30.33;28.47;;;;;;;12.06;100.00;103122.09;1911014;74;86320;-73
2022/04/28 09:18:10;;;;;;;28.90;27.10;;;;;;;11.99;100.00;103119.94;1981455;71;39672;-74
2022/04/28 09:23:56;;;;;;;28.63;26.73;;;;;;;12.29;100.00;103123.50;1845891;76;86414;-73
2022/04/28 09:29:45;;;;;;;29.10;26.93;;;;;;;12.28;100.00;103112.89;1871130;74;86329;-73
2022/04/28 09:35:33;;;;;;;28.93;27.30;;;;;;;12.48;100.00;103111.70;1867958;75;85600;-74
2022/04/28 09:47:23;;;;;;;28.40;26.70;;;;;;;12.28;100.00;103108.71;1908757;74;86302;-73
2022/04/28 09:53:09;;;;;;;25.03;23.40;;;;;;;12.60;100.00;103108.34;1977608;71;39418;-74
2022/04/28 09:58:52;;;;;;;24.10;22.33;;;;;;;12.84;100.00;103115.58;1903835;74;86312;-72
2022/04/28 10:04:37;;;;;;;23.10;21.63;;;;;;;12.69;100.00;103116.11;1868457;75;86181;-73
2022/04/28 10:10:24;;;;;;;22.37;20.87;;;;;;;13.01;100.00;103112.33;1910234;74;86182;-74
2022/04/28 10:16:13;;;;;;;21.77;20.37;;;;;;;13.05;100.00;103112.71;1986992;71;40481;-72
2022/04/28 10:22:02;;;;;;;21.03;19.73;;;;;;;13.08;100.00;103108.02;1892127;74;86226;-73
2022/04/28 10:34:12;;;;;;;19.87;18.47;;;;;;;13.13;100.00;103115.14;1841145;76;86084;-74
2022/04/28 10:40:16;;;;;;;18.40;17.20;;;;;;;13.39;100.00;103108.95;1983084;71;39692;-73
2022/04/28 10:46:31;;;;;;;17.90;16.70;;;;;;;13.58;100.00;103095.64;1978192;71;39656;-72
2022/04/28 10:52:25;;;;;;;18.13;16.90;;;;;;;13.87;100.00;103104.27;1980663;71;39679;-74
2022/04/28 10:58:22;;;;;;;18.40;16.97;;;;;;;13.59;100.00;103100.14;1924914;71;39672;-72
2022/04/28 11:04:12;;;;;;;16.77;15.53;;;;;;;13.81;100.00;103101.66;1983278;71;39471;-72
2022/04/28 11:10:03;;;;;;;17.00;15.77;;;;;;;13.97;100.00;103105.01;1822339;76;85700;-72
2022/04/28 11:15:50;;;;;;;17.50;16.27;;;;;;;14.07;100.00;103094.02;1889475;74;85960;-74
2022/04/28 11:21:34;;;;;;;17.53;16.13;;;;;;;13.98;100.00;103104.77;1806308;77;86584;-74
2022/04/28 11:27:23;;;;;;;17.57;16.17;;;;;;;14.01;100.00;103106.20;1945629;73;86757;-71
2022/04/28 11:33:13;;;;;;;17.33;16.00;;;;;;;14.46;100.00;103113.12;1987064;71;39620;-72
2022/04/28 11:39:01;;;;;;;17.17;15.97;;;;;;;14.29;100.00;103118.67;1847688;76;86097;-73
2022/04/28 11:44:48;;;;;;;18.10;16.70;;;;;;;14.61;100.00;103116.69;1884096;74;86342;-73
2022/04/28 11:50:34;;;;;;;18.17;16.60;;;;;;;14.55;100.00;103116.61;1874937;75;85798;-73
2022/04/28 11:56:22;;;;;;;17.40;16.20;;;;;;;14.73;100.00;103118.27;1945268;73;86209;-73
2022/04/28 12:02:09;;;;;;;17.73;16.23;;;;;;;14.65;100.00;103103.33;1890822;74;86070;-72
2022/04/28 12:07:59;;;;;;;17.47;16.17;;;;;;;14.66;100.00;103105.58;1980425;70;86267;-72
2022/04/28 12:19:55;;;;;;;16.93;15.80;;;;;;;14.65;100.00;103102.48;1810066;78;86094;-73
2022/04/28 12:25:55;;;;;;;18.20;16.57;;;;;;;14.54;100.00;103105.15;1844311;76;86088;-72
2022/04/28 12:28:30;;;;;;;17.77;16.67;;;;;;;14.50;100.00;103106.73;1792354;77;939017;-72
2022/04/28 12:34:19;;;;;;;17.80;16.40;;;;;;;14.52;100.00;103094.75;1978327;71;39617;-75
2022/04/28 12:40:04;;;;;;;18.47;16.73;;;;;;;14.74;100.00;103082.75;1801096;78;86308;-73
2022/04/28 12:45:58;;;;;;;17.83;16.33;;;;;;;14.73;100.00;103086.64;1836566;76;86733;-72
2022/04/28 12:51:45;;;;;;;17.73;16.23;;;;;;;14.73;100.00;103089.44;1881906;73;86307;-72
2022/04/28 13:00:40;;;;;;;17.63;16.10;;;;;;;14.71;100.00;103075.73;1958444;71;86211;-72
2022/04/28 13:03:11;;;;;;;17.37;16.07;;;;;;;14.88;100.00;103078.47;1876340;74;940029;-71
2022/04/28 13:05:41;;;;;;;19.07;17.47;;;;;;;15.13;100.00;103073.19;1890781;74;938944;-72
2022/04/28 13:08:11;;;;;;;17.47;16.17;;;;;;;14.95;100.00;103069.31;1885659;73;940799;-72
2022/04/28 13:10:43;;;;;;;18.20;16.90;;;;;;;14.85;100.00;103079.81;1891724;73;938997;-72
2022/04/28 13:13:13;;;;;;;17.10;15.90;;;;;;;14.88;100.00;103065.88;1898592;71;940911;-72
2022/04/28 13:15:44;;;;;;;17.23;15.77;;;;;;;14.99;100.00;103062.09;1902879;74;939141;-73
2022/04/28 13:18:14;;;;;;;18.20;16.67;;;;;;;15.06;100.00;103056.30;1885677;74;940087;-72
2022/04/28 13:20:44;;;;;;;17.30;16.03;;;;;;;14.97;100.00;103049.73;1919641;72;939009;-72
2022/04/28 13:23:14;;;;;;;17.80;16.47;;;;;;;15.04;100.00;103052.36;1890501;73;940800;-71
2022/04/28 13:25:44;;;;;;;17.97;16.67;;;;;;;15.15;100.00;103044.91;1894768;74;939204;-74
2022/04/28 13:28:16;;;;;;;17.83;16.53;;;;;;;15.00;100.00;103050.64;1885297;74;940942;-74
2022/04/28 13:30:46;;;;;;;17.67;16.27;;;;;;;15.07;100.00;103049.57;1937140;71;939090;-73
2022/04/28 13:33:16;;;;;;;17.27;15.97;;;;;;;14.96;100.00;103043.87;1884301;74;940812;-72
2022/04/28 13:35:46;;;;;;;18.10;16.67;;;;;;;15.10;100.00;103044.32;1903147;74;939390;-72
2022/04/28 13:38:16;;;;;;;33.77;17.80;;;;;;;15.00;100.00;103041.39;1930981;71;941104;-71
2022/04/28 13:40:47;;;;;;;18.03;16.73;;;;;;;15.12;100.00;103037.89;1894530;73;939223;-72
2022/04/28 13:43:17;;;;;;;18.20;16.77;;;;;;;15.40;100.00;103032.02;1885614;73;941152;-71
2022/04/28 13:45:47;;;;;;;18.43;16.83;;;;;;;15.63;100.00;103026.68;1927324;72;938948;-70
2022/04/28 13:48:18;;;;;;;19.00;17.50;;;;;;;15.56;100.00;103016.27;1880231;73;1029655;-74
2022/04/28 13:50:49;;;;;;;18.40;17.03;;;;;;;15.57;100.00;103015.16;1898492;74;941355;-73
2022/04/28 13:53:23;;;;;;;18.23;16.67;;;;;;;15.65;100.00;103011.87;1928920;72;941021;-74
2022/04/28 13:59:05;;;;;;;18.27;16.97;;;;;;;16.02;100.00;103010.47;1987373;71;39677;-73
2022/04/28 14:04:52;;;;;;;18.00;16.60;;;;;;;16.08;100.00;103002.95;1881896;74;86367;-72
2022/04/28 14:10:36;;;;;;;18.77;17.30;;;;;;;15.96;100.00;103002.30;1885557;75;85159;-72
2022/04/28 14:16:21;;;;;;;19.13;17.57;;;;;;;15.53;100.00;102994.94;1920631;72;86157;-73
2022/04/28 14:22:06;;;;;;;17.93;16.53;;;;;;;15.42;100.00;102989.75;1800885;78;86353;-73
2022/04/28 14:27:50;;;;;;;18.60;17.10;;;;;;;15.49;100.00;103000.17;1882829;74;86247;-72
2022/04/28 14:33:35;;;;;;;18.27;16.97;;;;;;;15.63;100.00;102990.26;1872262;75;85523;-73
2022/04/28 14:39:21;;;;;;;19.03;17.63;;;;;;;15.76;100.00;102983.36;1918169;73;86270;-73
2022/04/28 14:45:08;;;;;;;19.43;17.63;;;;;;;15.74;100.00;102983.64;1927482;71;39725;-74
2022/04/28 14:56:53;;;;;;;19.60;18.07;;;;;;;15.42;100.00;102983.60;1847325;76;86384;-72
2022/04/28 15:02:36;;;;;;;19.70;18.10;;;;;;;15.54;100.00;102977.00;1886968;73;86263;-77
2022/04/28 15:08:21;;;;;;;19.60;18.03;;;;;;;15.75;100.00;102978.30;1907735;73;86214;-80
2022/04/28 15:14:05;;;;;;;19.33;17.83;;;;;;;15.39;100.00;102970.14;1927570;71;39671;-71
2022/04/28 15:19:50;;;;;;;20.20;18.80;;;;;;;15.41;100.00;102968.45;1900942;73;85720;-75
2022/04/28 15:25:39;;;;;;;19.83;18.27;;;;;;;15.39;100.00;102968.73;1807449;77;85244;-75
2022/04/28 15:31:26;;;;;;;20.30;18.53;;;;;;;15.42;100.00;102961.75;1910692;74;85871;-72
2022/04/28 15:37:10;;;;;;;19.47;18.10;;;;;;;15.28;100.00;102968.34;1986179;71;39619;-75
2022/04/28 15:42:54;;;;;;;19.03;17.70;;;;;;;15.47;100.00;102961.80;1848566;76;86210;-69
2022/04/28 15:48:40;;;;;;;19.63;18.13;;;;;;;15.39;100.00;102963.14;1881487;74;86163;-76
2022/04/28 15:54:24;;;;;;;19.87;18.17;;;;;;;15.32;100.00;102970.89;1910811;74;85914;-72
2022/04/28 16:00:12;;;;;;;18.90;17.50;;;;;;;15.11;100.00;102970.41;1950656;71;40389;-74
2022/04/28 16:05:57;;;;;;;19.57;17.87;;;;;;;15.08;100.00;102968.69;1850037;76;86150;-73
2022/04/28 16:11:43;;;;;;;20.37;18.87;;;;;;;15.10;100.00;102973.48;1873234;74;85410;-75
2022/04/28 16:17:29;;;;;;;18.63;17.33;;;;;;;14.90;100.00;102973.54;1806659;77;85511;-71
2022/04/28 16:23:13;;;;;;;19.80;18.33;;;;;;;14.79;100.00;102973.14;1984377;71;39620;-74
2022/04/28 16:28:56;;;;;;;19.63;17.83;;;;;;;14.73;100.00;102972.78;1844540;76;86383;-80
2022/04/28 16:34:41;;;;;;;21.30;19.43;;;;;;;14.79;100.00;102970.34;1870897;73;86606;-78
2022/04/28 16:40:25;;;;;;;18.73;17.33;;;;;;;14.94;100.00;102978.05;1912541;72;85409;-77
2022/04/28 16:46:12;;;;;;;18.70;17.20;;;;;;;14.98;100.00;102979.22;1987573;71;40242;-81
2022/04/28 16:51:58;;;;;;;18.60;17.00;;;;;;;14.97;100.00;102971.38;1950118;72;86417;-80
2022/04/28 16:57:43;;;;;;;17.30;16.10;;;;;;;15.20;100.00;102977.77;1888440;73;85975;-76
2022/04/28 17:09:32;;;;;;;18.87;17.23;;;;;;;14.89;100.00;102989.22;1805519;77;86178;-76
2022/04/28 17:15:17;;;;;;;18.17;16.77;;;;;;;14.80;100.00;102987.98;1986497;71;39572;-76
2022/04/28 17:21:03;;;;;;;18.03;16.63;;;;;;;14.86;100.00;102994.77;1841682;76;86773;-67
2022/04/28 17:26:48;;;;;;;17.70;16.30;;;;;;;14.75;100.00;103006.11;1809045;78;85908;-69
2022/04/28 17:32:34;;;;;;;17.03;15.73;;;;;;;14.75;100.00;103002.76;1806957;77;86784;-71
2022/04/28 17:38:22;;;;;;;19.10;17.60;;;;;;;14.70;100.00;103006.88;1928035;73;86330;-79
2022/04/28 17:44:08;;;;;;;17.90;16.63;;;;;;;14.48;100.00;103010.22;1987580;71;39524;-73
2022/04/28 17:49:53;;;;;;;18.23;16.97;;;;;;;14.45;100.00;103018.59;1844547;76;85915;-74
2022/04/28 18:01:39;;;;;;;18.27;16.93;;;;;;;14.21;100.00;103038.58;1886487;75;86238;-72
2022/04/28 18:07:24;;;;;;;19.27;17.77;;;;;;;14.11;100.00;103041.55;1912569;74;85572;-83
2022/04/28 18:13:09;;;;;;;18.90;17.43;;;;;;;13.91;100.00;103038.40;1977550;71;39547;-78
2022/04/28 18:18:53;;;;;;;18.47;17.27;;;;;;;13.92;100.00;103040.64;1831761;76;85937;-80
2022/04/28 18:24:38;;;;;;;19.87;18.37;;;;;;;13.72;100.00;103038.91;1873665;75;86419;-76
2022/04/28 18:30:24;;;;;;;18.73;17.33;;;;;;;13.65;100.00;103044.65;1953401;72;86320;-71
2022/04/28 18:48:13;;;;;;;20.27;18.80;;;;;;;13.51;100.00;103058.11;1976226;71;39508;-73
2022/04/28 18:53:57;;;;;;;20.43;18.93;;;;;;;13.35;100.00;103067.85;1824682;76;86699;-73
2022/04/28 18:59:43;;;;;;;21.90;20.20;;;;;;;13.32;100.00;103066.39;1873135;75;86214;-73
2022/04/28 19:05:27;;;;;;;22.83;21.13;;;;;;;13.20;100.00;103076.77;1805109;77;86313;-78
2022/04/28 19:11:13;;;;;;;22.70;21.13;;;;;;;13.06;100.00;103083.69;1945303;71;39472;-71
2022/04/28 19:16:57;;;;;;;23.53;21.93;;;;;;;13.02;100.00;103089.47;1851755;76;85617;-78
2022/04/28 19:22:42;;;;;;;24.97;23.03;;;;;;;12.84;100.00;103089.62;1887670;73;86179;-70
2022/04/28 19:28:26;;;;;;;25.80;23.73;;;;;;;12.71;100.00;103099.95;1907515;72;86358;-71
2022/04/28 19:34:09;;;;;;;24.83;22.87;;;;;;;12.59;100.00;103103.86;1987122;71;39541;-72
2022/04/28 19:39:54;;;;;;;25.37;23.77;;;;;;;12.52;100.00;103101.20;1837415;76;86651;-76
2022/04/28 19:45:39;;;;;;;28.03;26.00;;;;;;;12.30;100.00;103117.69;1885111;75;86082;-75
2022/04/28 19:51:25;;;;;;;28.27;26.13;;;;;;;12.40;100.00;103111.52;1914534;72;86056;-73
2022/04/28 19:57:09;;;;;;;28.67;26.47;;;;;;;12.31;100.00;103119.94;1927646;72;39468;-73
2022/04/28 20:02:52;;;;;;;27.63;25.83;;;;;;;12.29;100.00;103115.98;1896505;74;85348;-75
2022/04/28 20:08:35;;;;;;;28.57;26.37;;;;;;;12.26;100.00;103122.59;1880838;74;86635;-78
2022/04/28 20:14:20;;;;;;;29.30;27.30;;;;;;;12.18;100.00;103121.56;1865034;75;85985;-76
2022/04/28 20:20:08;;;;;;;29.30;27.33;;;;;;;12.09;100.00;103123.85;1981648;70;39428;-77
2022/04/28 20:25:52;;;;;;;29.90;27.60;;;;;;;12.10;100.00;103135.31;1879831;75;86573;-72
2022/04/28 20:31:37;;;;;;;30.40;28.30;;;;;;;12.08;100.00;103134.69;1889665;74;86227;-72
2022/04/28 20:37:23;;;;;;;29.70;27.60;;;;;;;11.91;100.00;103137.01;1939279;73;86065;-80
2022/04/28 20:43:08;;;;;;;31.77;29.37;;;;;;;11.89;100.00;103137.27;1987545;71;39604;-80
2022/04/28 20:48:53;;;;;;;33.23;30.63;;;;;;;11.77;100.00;103147.50;1826334;76;86412;-78
2022/04/28 20:54:38;;;;;;;36.10;33.37;;;;;;;11.67;100.00;103144.42;1879349;73;84915;-74
2022/04/28 21:03:28;;;;;;;36.03;33.57;;;;;;;11.67;100.00;103145.27;1939216;72;86282;-80
2022/04/28 21:05:58;;;;;;;37.50;34.85;;;;;;;11.66;100.00;103142.18;1802164;77;938708;-80
2022/04/28 21:08:28;;;;;;;38.67;35.83;;;;;;;11.59;100.00;103140.05;1798360;76;940834;-80
2022/04/28 21:11:02;;;;;;;37.83;35.00;;;;;;;11.49;100.00;103139.75;1784581;77;941076;-81
2022/04/28 21:13:32;;;;;;;36.87;34.20;;;;;;;11.42;100.00;103136.22;1804812;77;940769;-79
2022/04/28 21:16:03;;;;;;;38.65;35.75;;;;;;;11.39;100.00;103143.09;1800659;77;940864;-86
2022/04/28 21:18:34;;;;;;;34.07;31.77;;;;;;;11.37;100.00;103138.85;1810327;76;940944;-77
2022/04/28 21:21:04;;;;;;;33.90;31.57;;;;;;;11.40;100.00;103130.88;1799554;77;940847;-76
2022/04/28 21:23:35;;;;;;;34.60;32.10;;;;;;;11.49;100.00;103127.77;1804497;76;940803;-76
2022/04/28 21:26:06;;;;;;;34.27;31.80;;;;;;;11.46;100.00;103120.75;1787770;77;941174;-81
2022/04/28 21:28:37;;;;;;;34.65;32.23;;;;;;;11.46;100.00;103124.92;1823491;76;941014;-75
2022/04/28 21:31:09;;;;;;;33.83;31.42;;;;;;;11.40;100.00;103122.53;1811190;76;940843;-83
2022/04/28 21:33:39;;;;;;;33.00;30.70;;;;;;;11.31;100.00;103133.67;1807409;77;938988;-83
2022/04/28 21:36:10;;;;;;;33.00;30.70;;;;;;;11.36;100.00;103139.39;1777040;77;941067;-82
2022/04/28 21:38:43;;;;;;;32.60;30.20;;;;;;;11.29;100.00;103146.14;1800858;78;939190;-82
2022/04/28 21:41:14;;;;;;;32.90;30.60;;;;;;;11.30;100.00;103143.09;1775305;77;940805;-79
2022/04/28 21:43:44;;;;;;;32.37;29.97;;;;;;;11.24;100.00;103143.20;1779416;77;939018;-81
2022/04/28 21:46:15;;;;;;;32.97;30.37;;;;;;;11.32;100.00;103147.91;1814531;76;941007;-74
2022/04/28 21:48:46;;;;;;;33.93;31.47;;;;;;;11.22;100.00;103145.35;1809770;76;938867;-74
2022/04/28 21:51:16;;;;;;;32.47;30.30;;;;;;;11.13;100.00;103141.19;1826978;75;941014;-81
2022/04/28 21:53:47;;;;;;;32.93;30.33;;;;;;;11.16;100.00;103147.70;1822655;77;939115;-80
2022/04/28 21:59:35;;;;;;;35.60;33.03;;;;;;;11.11;100.00;103145.61;1807148;76;86660;-83
2022/04/28 22:11:24;;;;;;;34.20;31.80;;;;;;;10.91;100.00;103161.70;1927391;71;85523;-84
2022/04/28 22:17:11;;;;;;;35.67;33.37;;;;;;;10.79;100.00;103156.56;1987356;71;47489;-85
2022/04/28 22:22:57;;;;;;;37.60;34.97;;;;;;;10.82;100.00;103147.78;1843405;76;86279;-75
2022/04/28 22:28:44;;;;;;;41.37;38.67;;;;;;;10.69;100.00;103155.73;1908063;73;85341;-75
2022/04/28 22:34:29;;;;;;;42.70;40.00;;;;;;;10.77;100.00;103148.47;1801454;77;85299;-84
2022/04/28 22:40:16;;;;;;;41.70;38.83;;;;;;;10.86;100.00;103152.66;1984394;71;39693;-74
2022/04/28 22:49:15;;;;;;;46.20;42.97;;;;;;;10.86;100.00;103169.88;1977601;71;40093;-76
2022/04/28 22:54:59;;;;;;;48.93;45.73;;;;;;;10.75;100.00;103173.40;1931830;72;86322;-75
2022/04/28 23:00:42;;;;;;;51.47;47.93;;;;;;;10.73;100.00;103179.74;1905312;73;86115;-85
2022/04/28 23:06:28;;;;;;;54.80;50.83;;;;;;;10.61;100.00;103196.30;1801630;77;86537;-81
2022/04/28 23:12:13;;;;;;;58.83;55.07;;;;;;;10.57;100.00;103196.45;1984428;71;39576;-85
2022/04/28 23:17:57;;;;;;;56.60;52.90;;;;;;;10.62;100.00;103199.94;1842670;76;86262;-84
2022/04/28 23:23:42;;;;;;;57.03;53.23;;;;;;;10.55;100.00;103209.73;1881815;73;85333;-84
2022/04/28 23:29:26;;;;;;;54.50;50.97;;;;;;;10.40;100.00;103215.63;1940941;72;85461;-75
2022/04/28 23:42:26;;;;;;;51.63;48.53;;;;;;;10.35;100.00;103211.84;1977009;71;40213;-75
2022/04/28 23:46:59;;;;;;;51.13;47.83;;;;;;;10.27;100.00;103207.39;1874401;76;85656;-83
2022/04/28 23:58:49;;;;;;;56.43;52.83;;;;;;;10.30;100.00;103216.69;1873208;75;85432;-83
